createdAt,value
2023-05-13T00:00:45.294Z,0.00
2023-05-13T00:01:45.276Z,0.00
2023-05-13T00:02:45.368Z,0.00
2023-05-13T00:03:45.359Z,0.00
2023-05-13T00:04:45.255Z,0.00
2023-05-13T00:05:45.276Z,0.00
2023-05-13T00:06:45.262Z,0.00
2023-05-13T00:07:45.237Z,0.00
2023-05-13T00:08:45.285Z,0.00
2023-05-13T00:09:45.232Z,0.00
2023-05-13T00:10:45.236Z,0.00
2023-05-13T00:11:45.223Z,0.00
2023-05-13T00:12:45.202Z,0.00
2023-05-13T00:13:45.213Z,0.00
2023-05-13T00:14:45.196Z,0.00
2023-05-13T00:15:45.209Z,0.00
2023-05-13T00:16:45.205Z,0.00
2023-05-13T00:17:45.191Z,0.00
2023-05-13T00:18:45.237Z,0.00
2023-05-13T00:19:45.164Z,0.00
2023-05-13T00:20:45.179Z,0.00
2023-05-13T00:21:45.153Z,0.00
2023-05-13T00:22:45.172Z,0.00
2023-05-13T00:23:45.136Z,0.00
2023-05-13T00:24:45.150Z,0.00
2023-05-13T00:25:46.128Z,0.00
2023-05-13T00:26:45.119Z,0.00
2023-05-13T00:27:45.142Z,0.00
2023-05-13T00:28:45.175Z,0.00
2023-05-13T00:29:45.099Z,0.00
2023-05-13T00:30:45.098Z,0.00
2023-05-13T00:31:45.128Z,0.00
2023-05-13T00:32:45.144Z,0.00
2023-05-13T00:33:45.079Z,0.00
2023-05-13T00:34:45.077Z,0.00
2023-05-13T00:35:45.081Z,0.00
2023-05-13T00:36:45.055Z,0.00
2023-05-13T00:37:45.085Z,0.00
2023-05-13T00:38:45.050Z,0.00
2023-05-13T00:39:45.047Z,0.00
2023-05-13T00:40:45.043Z,0.00
2023-05-13T00:41:45.038Z,0.00
2023-05-13T00:42:45.032Z,0.00
2023-05-13T00:43:45.037Z,0.00
2023-05-13T00:44:45.012Z,0.00
2023-05-13T00:45:45.037Z,0.00
2023-05-13T00:46:45.018Z,0.00
2023-05-13T00:47:45.059Z,0.00
2023-05-13T00:48:44.990Z,0.00
2023-05-13T00:49:44.983Z,0.00
2023-05-13T00:50:44.972Z,0.00
2023-05-13T00:51:44.965Z,0.00
2023-05-13T00:52:44.981Z,0.00
2023-05-13T00:53:44.956Z,0.00
2023-05-13T00:54:44.945Z,0.00
2023-05-13T00:55:44.948Z,0.00
2023-05-13T00:56:44.939Z,0.00
2023-05-13T00:57:44.932Z,0.00
2023-05-13T00:58:44.914Z,0.00
2023-05-13T00:59:44.940Z,0.00
2023-05-13T01:00:44.938Z,0.00
2023-05-13T01:01:44.952Z,0.00
2023-05-13T01:02:44.956Z,0.00
2023-05-13T01:03:44.927Z,0.00
2023-05-13T01:04:44.939Z,0.00
2023-05-13T01:05:44.874Z,0.00
2023-05-13T01:06:44.860Z,0.00
2023-05-13T01:07:44.875Z,0.00
2023-05-13T01:08:44.857Z,0.00
2023-05-13T01:09:44.870Z,0.00
2023-05-13T01:10:44.847Z,0.00
2023-05-13T01:11:44.834Z,0.00
2023-05-13T01:12:44.818Z,0.00
2023-05-13T01:13:44.815Z,0.00
2023-05-13T01:14:44.822Z,0.00
2023-05-13T01:15:44.823Z,0.00
2023-05-13T01:16:44.811Z,0.00
2023-05-13T01:17:44.861Z,0.00
2023-05-13T01:18:44.827Z,0.00
2023-05-13T01:19:44.803Z,0.00
2023-05-13T01:20:44.783Z,0.00
2023-05-13T01:21:44.759Z,0.00
2023-05-13T01:22:44.755Z,0.00
2023-05-13T01:23:44.750Z,0.00
2023-05-13T01:24:44.754Z,0.00
2023-05-13T01:25:44.730Z,0.00
2023-05-13T01:26:44.750Z,0.00
2023-05-13T01:27:44.728Z,0.00
2023-05-13T01:28:44.720Z,0.00
2023-05-13T01:29:44.712Z,0.00
2023-05-13T01:30:44.720Z,0.00
2023-05-13T01:31:44.858Z,0.00
2023-05-13T01:32:44.707Z,0.00
2023-05-13T01:33:44.686Z,0.00
2023-05-13T01:34:44.693Z,0.00
2023-05-13T01:35:44.677Z,0.00
2023-05-13T01:36:44.666Z,0.00
2023-05-13T01:37:44.664Z,0.00
2023-05-13T01:38:44.658Z,0.00
2023-05-13T01:39:44.665Z,0.00
2023-05-13T01:40:44.648Z,0.00
2023-05-13T01:41:45.654Z,0.00
2023-05-13T01:42:44.707Z,0.00
2023-05-13T01:43:44.635Z,0.00
2023-05-13T01:44:44.610Z,0.00
2023-05-13T01:45:44.624Z,0.00
2023-05-13T01:46:44.670Z,0.00
2023-05-13T01:47:44.634Z,0.00
2023-05-13T01:48:44.593Z,0.00
2023-05-13T01:49:44.586Z,0.00
2023-05-13T01:50:44.600Z,0.00
2023-05-13T01:51:44.573Z,0.00
2023-05-13T01:52:44.577Z,0.00
2023-05-13T01:53:44.597Z,0.00
2023-05-13T01:54:44.557Z,0.00
2023-05-13T01:55:44.554Z,0.00
2023-05-13T01:56:44.568Z,0.00
2023-05-13T01:57:44.561Z,0.00
2023-05-13T01:58:44.525Z,0.00
2023-05-13T01:59:44.520Z,0.00
2023-05-13T02:00:44.515Z,0.00
2023-05-13T02:01:44.534Z,0.00
2023-05-13T02:02:44.690Z,0.00
2023-05-13T02:03:44.547Z,0.00
2023-05-13T02:04:44.497Z,0.00
2023-05-13T02:05:44.481Z,0.00
2023-05-13T02:06:44.481Z,0.00
2023-05-13T02:07:44.482Z,0.00
2023-05-13T02:08:44.465Z,0.00
2023-05-13T02:09:44.469Z,0.00
2023-05-13T02:10:44.456Z,0.00
2023-05-13T02:11:44.445Z,0.00
2023-05-13T02:12:44.443Z,0.00
2023-05-13T02:13:44.438Z,0.00
2023-05-13T02:14:44.461Z,0.00
2023-05-13T02:15:44.432Z,0.00
2023-05-13T02:16:44.432Z,0.00
2023-05-13T02:17:44.428Z,0.00
2023-05-13T02:18:44.476Z,0.00
2023-05-13T02:19:44.405Z,0.00
2023-05-13T02:20:44.407Z,0.00
2023-05-13T02:21:44.397Z,0.00
2023-05-13T02:22:44.386Z,0.00
2023-05-13T02:23:44.368Z,0.00
2023-05-13T02:24:44.375Z,0.00
2023-05-13T02:25:44.400Z,0.00
2023-05-13T02:26:44.385Z,0.00
2023-05-13T02:27:44.349Z,0.00
2023-05-13T02:28:44.365Z,0.00
2023-05-13T02:29:44.338Z,0.00
2023-05-13T02:30:44.338Z,0.00
2023-05-13T02:31:44.365Z,0.00
2023-05-13T02:32:44.462Z,0.00
2023-05-13T02:33:44.321Z,0.00
2023-05-13T02:34:44.324Z,0.00
2023-05-13T02:35:44.311Z,0.00
2023-05-13T02:36:44.314Z,0.00
2023-05-13T02:37:44.306Z,0.00
2023-05-13T02:38:44.403Z,0.00
2023-05-13T02:39:44.278Z,0.00
2023-05-13T02:40:44.293Z,0.00
2023-05-13T02:41:44.279Z,0.00
2023-05-13T02:42:44.279Z,0.00
2023-05-13T02:43:44.253Z,0.00
2023-05-13T02:44:44.246Z,0.00
2023-05-13T02:45:44.253Z,0.00
2023-05-13T02:46:44.282Z,0.00
2023-05-13T02:47:44.265Z,0.00
2023-05-13T02:48:44.221Z,0.00
2023-05-13T02:49:44.212Z,0.00
2023-05-13T02:50:44.206Z,0.00
2023-05-13T02:51:44.224Z,0.00
2023-05-13T02:52:44.245Z,0.00
2023-05-13T02:53:44.191Z,0.00
2023-05-13T02:54:44.225Z,0.00
2023-05-13T02:55:44.189Z,0.00
2023-05-13T02:56:44.170Z,0.00
2023-05-13T02:57:44.171Z,0.00
2023-05-13T02:58:44.198Z,0.00
2023-05-13T02:59:44.147Z,0.00
2023-05-13T03:00:44.191Z,0.00
2023-05-13T03:01:44.186Z,0.00
2023-05-13T03:02:44.240Z,0.00
2023-05-13T03:03:44.151Z,0.00
2023-05-13T03:04:44.114Z,0.00
2023-05-13T03:05:44.115Z,0.00
2023-05-13T03:06:44.114Z,0.00
2023-05-13T03:07:44.120Z,0.00
2023-05-13T03:08:44.087Z,0.00
2023-05-13T03:09:44.097Z,0.00
2023-05-13T03:10:44.077Z,0.00
2023-05-13T03:11:44.089Z,0.00
2023-05-13T03:12:44.077Z,0.00
2023-05-13T03:13:44.078Z,0.00
2023-05-13T03:14:44.052Z,0.00
2023-05-13T03:15:44.702Z,0.00
2023-05-13T03:16:45.059Z,0.00
2023-05-13T03:17:44.063Z,0.00
2023-05-13T03:18:44.052Z,0.00
2023-05-13T03:19:44.025Z,0.00
2023-05-13T03:20:44.021Z,0.00
2023-05-13T03:21:44.090Z,0.00
2023-05-13T03:22:44.016Z,0.00
2023-05-13T03:23:44.018Z,0.00
2023-05-13T03:24:43.989Z,0.00
2023-05-13T03:25:43.987Z,0.00
2023-05-13T03:26:43.978Z,0.00
2023-05-13T03:27:43.964Z,0.00
2023-05-13T03:28:43.990Z,0.00
2023-05-13T03:29:43.966Z,0.00
2023-05-13T03:30:43.953Z,0.00
2023-05-13T03:31:44.003Z,0.00
2023-05-13T03:32:44.056Z,0.00
2023-05-13T03:33:43.928Z,0.00
2023-05-13T03:34:43.983Z,0.00
2023-05-13T03:35:43.911Z,5.62
2023-05-13T03:36:43.902Z,5.62
2023-05-13T03:37:43.899Z,5.62
2023-05-13T03:38:43.899Z,5.62
2023-05-13T03:39:43.887Z,5.62
2023-05-13T03:40:43.903Z,5.62
2023-05-13T03:41:43.885Z,5.62
2023-05-13T03:42:43.871Z,5.62
2023-05-13T03:43:43.871Z,5.62
2023-05-13T03:44:43.870Z,5.62
2023-05-13T03:45:43.863Z,11.25
2023-05-13T03:46:43.869Z,11.25
2023-05-13T03:47:43.932Z,11.25
2023-05-13T03:48:43.830Z,11.25
2023-05-13T03:49:43.829Z,11.25
2023-05-13T03:50:43.832Z,11.25
2023-05-13T03:51:43.831Z,11.25
2023-05-13T03:52:45.508Z,16.88
2023-05-13T03:53:43.803Z,16.88
2023-05-13T03:54:43.797Z,16.88
2023-05-13T03:55:43.788Z,16.88
2023-05-13T03:56:43.785Z,16.88
2023-05-13T03:57:43.797Z,16.88
2023-05-13T03:58:43.786Z,22.50
2023-05-13T03:59:43.794Z,22.50
2023-05-13T04:00:43.771Z,22.50
2023-05-13T04:01:43.834Z,22.50
2023-05-13T04:02:44.016Z,22.50
2023-05-13T04:03:43.756Z,28.12
2023-05-13T04:04:43.766Z,28.12
2023-05-13T04:05:43.739Z,28.12
2023-05-13T04:06:43.750Z,28.12
2023-05-13T04:07:43.745Z,28.12
2023-05-13T04:08:43.718Z,33.75
2023-05-13T04:09:43.706Z,33.75
2023-05-13T04:10:43.737Z,33.75
2023-05-13T04:11:43.977Z,33.75
2023-05-13T04:12:43.696Z,33.75
2023-05-13T04:13:43.748Z,33.75
2023-05-13T04:14:43.687Z,39.38
2023-05-13T04:15:43.677Z,39.38
2023-05-13T04:16:43.809Z,39.38
2023-05-13T04:17:43.699Z,39.38
2023-05-13T04:18:43.669Z,39.38
2023-05-13T04:19:43.657Z,45.00
2023-05-13T04:20:43.657Z,45.00
2023-05-13T04:21:43.640Z,45.00
2023-05-13T04:22:43.663Z,50.62
2023-05-13T04:23:43.644Z,50.62
2023-05-13T04:24:43.631Z,50.62
2023-05-13T04:25:43.615Z,50.62
2023-05-13T04:26:43.604Z,50.62
2023-05-13T04:27:43.612Z,50.62
2023-05-13T04:28:43.606Z,50.62
2023-05-13T04:29:43.627Z,56.25
2023-05-13T04:30:43.587Z,56.25
2023-05-13T04:31:43.580Z,56.25
2023-05-13T04:32:43.617Z,56.25
2023-05-13T04:33:43.556Z,56.25
2023-05-13T04:34:43.556Z,61.88
2023-05-13T04:35:43.558Z,61.88
2023-05-13T04:36:43.541Z,61.88
2023-05-13T04:37:43.547Z,67.50
2023-05-13T04:38:43.571Z,67.50
2023-05-13T04:39:43.522Z,67.50
2023-05-13T04:40:43.534Z,67.50
2023-05-13T04:41:43.569Z,67.50
2023-05-13T04:42:43.507Z,73.12
2023-05-13T04:43:43.518Z,73.12
2023-05-13T04:44:43.499Z,73.12
2023-05-13T04:45:43.532Z,73.12
2023-05-13T04:46:43.603Z,73.12
2023-05-13T04:47:43.515Z,78.75
2023-05-13T04:48:43.505Z,78.75
2023-05-13T04:49:43.487Z,78.75
2023-05-13T04:50:43.484Z,78.75
2023-05-13T04:51:43.516Z,84.38
2023-05-13T04:52:43.449Z,84.38
2023-05-13T04:53:43.477Z,84.38
2023-05-13T04:54:43.436Z,84.38
2023-05-13T04:55:44.606Z,90.00
2023-05-13T04:56:45.324Z,90.00
2023-05-13T04:57:43.432Z,84.38
2023-05-13T04:58:43.412Z,90.00
2023-05-13T04:59:43.549Z,90.00
2023-05-13T05:00:43.413Z,90.00
2023-05-13T05:01:43.406Z,95.62
2023-05-13T05:02:43.407Z,95.62
2023-05-13T05:03:43.420Z,95.62
2023-05-13T05:04:43.402Z,95.62
2023-05-13T05:05:43.376Z,95.62
2023-05-13T05:06:43.369Z,101.25
2023-05-13T05:07:43.348Z,101.25
2023-05-13T05:08:43.369Z,101.25
2023-05-13T05:09:43.354Z,106.88
2023-05-13T05:10:43.429Z,106.88
2023-05-13T05:11:43.355Z,106.88
2023-05-13T05:12:43.883Z,112.50
2023-05-13T05:13:43.323Z,112.50
2023-05-13T05:14:43.332Z,112.50
2023-05-13T05:15:43.307Z,118.12
2023-05-13T05:16:43.306Z,118.12
2023-05-13T05:17:44.388Z,123.75
2023-05-13T05:18:43.758Z,123.75
2023-05-13T05:19:43.308Z,129.38
2023-05-13T05:20:43.269Z,129.38
2023-05-13T05:21:43.268Z,129.38
2023-05-13T05:22:43.267Z,135.00
2023-05-13T05:23:43.271Z,135.00
2023-05-13T05:24:43.263Z,135.00
2023-05-13T05:25:43.272Z,135.00
2023-05-13T05:26:43.236Z,135.00
2023-05-13T05:27:43.252Z,135.00
2023-05-13T05:28:43.263Z,140.62
2023-05-13T05:29:43.219Z,140.62
2023-05-13T05:30:43.246Z,140.62
2023-05-13T05:31:43.238Z,140.62
2023-05-13T05:32:43.281Z,146.25
2023-05-13T05:33:43.223Z,146.25
2023-05-13T05:34:43.202Z,146.25
2023-05-13T05:35:43.173Z,151.88
2023-05-13T05:36:43.191Z,151.88
2023-05-13T05:37:43.163Z,157.50
2023-05-13T05:38:43.219Z,163.12
2023-05-13T05:39:43.152Z,168.75
2023-05-13T05:40:43.133Z,180.00
2023-05-13T05:41:43.169Z,185.62
2023-05-13T05:42:43.138Z,191.25
2023-05-13T05:43:43.129Z,196.88
2023-05-13T05:44:43.121Z,196.88
2023-05-13T05:45:43.107Z,202.50
2023-05-13T05:46:43.133Z,208.12
2023-05-13T05:47:43.102Z,208.12
2023-05-13T05:48:43.074Z,208.12
2023-05-13T05:49:43.077Z,213.75
2023-05-13T05:50:43.087Z,213.75
2023-05-13T05:51:43.099Z,213.75
2023-05-13T05:52:43.049Z,213.75
2023-05-13T05:53:43.045Z,213.75
2023-05-13T05:54:43.041Z,208.12
2023-05-13T05:55:43.037Z,208.12
2023-05-13T05:56:43.064Z,202.50
2023-05-13T05:57:43.023Z,208.12
2023-05-13T05:58:43.010Z,208.12
2023-05-13T05:59:43.004Z,208.12
2023-05-13T06:00:42.999Z,213.75
2023-05-13T06:01:43.021Z,213.75
2023-05-13T06:02:43.105Z,219.38
2023-05-13T06:03:43.083Z,225.00
2023-05-13T06:04:43.072Z,219.38
2023-05-13T06:05:42.985Z,230.62
2023-05-13T06:06:43.011Z,236.25
2023-05-13T06:07:43.027Z,236.25
2023-05-13T06:08:42.962Z,241.88
2023-05-13T06:09:42.974Z,241.88
2023-05-13T06:10:42.960Z,241.88
2023-05-13T06:11:42.929Z,247.50
2023-05-13T06:12:42.941Z,253.12
2023-05-13T06:13:42.927Z,258.75
2023-05-13T06:14:42.885Z,258.75
2023-05-13T06:15:42.938Z,275.62
2023-05-13T06:16:42.908Z,309.38
2023-05-13T06:17:42.902Z,343.12
2023-05-13T06:18:42.897Z,315.00
2023-05-13T06:19:42.855Z,309.38
2023-05-13T06:20:42.884Z,343.12
2023-05-13T06:21:42.858Z,360.00
2023-05-13T06:22:42.840Z,326.25
2023-05-13T06:23:42.891Z,343.12
2023-05-13T06:24:42.820Z,326.25
2023-05-13T06:25:42.832Z,309.38
2023-05-13T06:26:42.801Z,315.00
2023-05-13T06:27:42.805Z,320.62
2023-05-13T06:28:42.803Z,365.62
2023-05-13T06:29:42.807Z,382.50
2023-05-13T06:30:42.785Z,393.75
2023-05-13T06:31:43.837Z,405.00
2023-05-13T06:32:53.470Z,410.62
2023-05-13T06:33:44.757Z,421.88
2023-05-13T06:34:42.765Z,427.50
2023-05-13T06:35:42.760Z,421.88
2023-05-13T06:36:42.733Z,663.75
2023-05-13T06:37:42.739Z,635.62
2023-05-13T06:38:42.725Z,742.50
2023-05-13T06:39:42.765Z,826.88
2023-05-13T06:40:42.736Z,978.75
2023-05-13T06:41:42.707Z,1063.12
2023-05-13T06:42:42.692Z,1091.25
2023-05-13T06:43:42.681Z,1080.00
2023-05-13T06:44:42.691Z,950.62
2023-05-13T06:45:42.751Z,961.88
2023-05-13T06:46:42.688Z,855.00
2023-05-13T06:47:42.711Z,742.50
2023-05-13T06:48:42.670Z,686.25
2023-05-13T06:49:42.663Z,669.38
2023-05-13T06:50:42.688Z,669.38
2023-05-13T06:51:42.658Z,686.25
2023-05-13T06:52:42.638Z,686.25
2023-05-13T06:53:42.626Z,669.38
2023-05-13T06:54:42.642Z,646.88
2023-05-13T06:55:42.622Z,596.25
2023-05-13T06:56:42.643Z,573.75
2023-05-13T06:57:43.625Z,596.25
2023-05-13T06:58:43.689Z,601.88
2023-05-13T06:59:42.594Z,573.75
2023-05-13T07:00:42.621Z,562.50
2023-05-13T07:01:42.581Z,579.38
2023-05-13T07:02:42.624Z,573.75
2023-05-13T07:03:42.629Z,562.50
2023-05-13T07:04:42.552Z,551.25
2023-05-13T07:05:42.538Z,562.50
2023-05-13T07:06:42.540Z,573.75
2023-05-13T07:07:42.580Z,590.62
2023-05-13T07:08:42.552Z,596.25
2023-05-13T07:09:42.513Z,590.62
2023-05-13T07:10:42.510Z,568.12
2023-05-13T07:11:42.498Z,556.88
2023-05-13T07:12:42.525Z,551.25
2023-05-13T07:13:42.478Z,556.88
2023-05-13T07:14:42.501Z,607.50
2023-05-13T07:15:42.483Z,652.50
2023-05-13T07:16:42.500Z,641.25
2023-05-13T07:17:42.704Z,618.75
2023-05-13T07:18:42.487Z,618.75
2023-05-13T07:19:42.464Z,613.12
2023-05-13T07:20:42.436Z,596.25
2023-05-13T07:21:42.438Z,590.62
2023-05-13T07:22:42.432Z,590.62
2023-05-13T07:23:44.287Z,601.88
2023-05-13T07:24:43.410Z,618.75
2023-05-13T07:25:42.418Z,607.50
2023-05-13T07:26:42.391Z,618.75
2023-05-13T07:27:42.389Z,663.75
2023-05-13T07:28:42.397Z,652.50
2023-05-13T07:29:42.433Z,607.50
2023-05-13T07:30:42.451Z,601.88
2023-05-13T07:31:42.374Z,658.12
2023-05-13T07:32:42.403Z,708.75
2023-05-13T07:33:42.367Z,691.88
2023-05-13T07:34:42.340Z,697.50
2023-05-13T07:35:42.345Z,725.62
2023-05-13T07:36:42.352Z,748.12
2023-05-13T07:37:42.332Z,753.75
2023-05-13T07:38:42.349Z,776.25
2023-05-13T07:39:42.311Z,798.75
2023-05-13T07:40:42.306Z,759.38
2023-05-13T07:41:42.330Z,770.62
2023-05-13T07:42:42.301Z,900.00
2023-05-13T07:43:42.302Z,1288.12
2023-05-13T07:44:42.307Z,1636.88
2023-05-13T07:45:42.298Z,1704.38
2023-05-13T07:46:42.301Z,1653.75
2023-05-13T07:47:44.382Z,1704.38
2023-05-13T07:48:43.271Z,1777.50
2023-05-13T07:49:42.297Z,1861.88
2023-05-13T07:50:42.238Z,1833.75
2023-05-13T07:51:42.241Z,1794.38
2023-05-13T07:52:42.236Z,1738.12
2023-05-13T07:53:42.265Z,1676.25
2023-05-13T07:54:42.233Z,1603.12
2023-05-13T07:55:42.242Z,1501.88
2023-05-13T07:56:42.206Z,1440.00
2023-05-13T07:57:42.202Z,1428.75
2023-05-13T07:58:42.217Z,1428.75
2023-05-13T07:59:44.545Z,1400.62
2023-05-13T08:00:43.188Z,1293.75
2023-05-13T08:01:42.175Z,1333.12
2023-05-13T08:02:42.292Z,1451.25
2023-05-13T08:03:42.276Z,1530.00
2023-05-13T08:04:42.238Z,1507.50
2023-05-13T08:05:42.152Z,1445.62
2023-05-13T08:06:42.156Z,1451.25
2023-05-13T08:07:42.146Z,1372.50
2023-05-13T08:08:42.171Z,1265.62
2023-05-13T08:09:42.148Z,1248.75
2023-05-13T08:10:42.119Z,1215.00
2023-05-13T08:11:42.147Z,1226.25
2023-05-13T08:12:42.117Z,1288.12
2023-05-13T08:13:42.116Z,1310.62
2023-05-13T08:14:42.114Z,1248.75
2023-05-13T08:15:42.112Z,1276.88
2023-05-13T08:16:42.109Z,1271.25
2023-05-13T08:17:42.152Z,1237.50
2023-05-13T08:18:42.106Z,1293.75
2023-05-13T08:19:42.063Z,1305.00
2023-05-13T08:20:42.075Z,1288.12
2023-05-13T08:21:42.054Z,1237.50
2023-05-13T08:22:42.041Z,1282.50
2023-05-13T08:23:45.837Z,1344.38
2023-05-13T08:24:43.041Z,1299.38
2023-05-13T08:25:42.053Z,1265.62
2023-05-13T08:26:42.026Z,1243.12
2023-05-13T08:27:42.013Z,1293.75
2023-05-13T08:28:42.679Z,1316.25
2023-05-13T08:29:42.059Z,1321.88
2023-05-13T08:30:41.991Z,1243.12
2023-05-13T08:31:42.064Z,1333.12
2023-05-13T08:32:42.032Z,1350.00
2023-05-13T08:33:43.006Z,1338.75
2023-05-13T08:34:41.972Z,1395.00
2023-05-13T08:35:44.213Z,1327.50
2023-05-13T08:36:41.958Z,1406.25
2023-05-13T08:37:42.018Z,1400.62
2023-05-13T08:38:41.953Z,1372.50
2023-05-13T08:39:41.947Z,1288.12
2023-05-13T08:40:41.921Z,1271.25
2023-05-13T08:41:41.927Z,1299.38
2023-05-13T08:42:41.937Z,1231.88
2023-05-13T08:43:41.904Z,1310.62
2023-05-13T08:44:41.912Z,1299.38
2023-05-13T08:45:41.944Z,1344.38
2023-05-13T08:46:41.891Z,1423.12
2023-05-13T08:47:42.031Z,1434.38
2023-05-13T08:48:41.891Z,1350.00
2023-05-13T08:49:41.896Z,1321.88
2023-05-13T08:50:41.875Z,1378.12
2023-05-13T08:51:41.867Z,1389.38
2023-05-13T08:52:41.899Z,1400.62
2023-05-13T08:53:41.867Z,1378.12
2023-05-13T08:54:41.856Z,1383.75
2023-05-13T08:55:41.856Z,1423.12
2023-05-13T08:56:41.832Z,1501.88
2023-05-13T08:57:41.820Z,1490.62
2023-05-13T08:58:41.828Z,1462.50
2023-05-13T08:59:41.835Z,1479.38
2023-05-13T09:00:41.843Z,427.50
2023-05-13T09:01:41.847Z,1558.12
2023-05-13T09:02:41.866Z,1563.75
2023-05-13T09:03:41.808Z,1608.75
2023-05-13T09:04:41.843Z,1642.50
2023-05-13T09:05:41.823Z,1625.62
2023-05-13T09:06:41.796Z,1563.75
2023-05-13T09:07:41.811Z,1479.38
2023-05-13T09:08:41.781Z,900.00
2023-05-13T09:09:41.768Z,416.25
2023-05-13T09:10:41.796Z,1389.38
2023-05-13T09:11:43.964Z,1473.75
2023-05-13T09:12:41.750Z,1445.62
2023-05-13T09:13:41.737Z,1456.88
2023-05-13T09:14:41.725Z,455.62
2023-05-13T09:15:41.760Z,444.38
2023-05-13T09:16:41.741Z,360.00
2023-05-13T09:17:41.740Z,455.62
2023-05-13T09:18:41.830Z,337.50
2023-05-13T09:19:41.788Z,303.75
2023-05-13T09:20:41.698Z,298.12
2023-05-13T09:21:41.688Z,298.12
2023-05-13T09:22:41.687Z,500.62
2023-05-13T09:23:41.671Z,320.62
2023-05-13T09:24:41.670Z,303.75
2023-05-13T09:25:41.658Z,292.50
2023-05-13T09:26:41.654Z,286.88
2023-05-13T09:27:41.694Z,286.88
2023-05-13T09:28:41.662Z,286.88
2023-05-13T09:29:41.635Z,292.50
2023-05-13T09:30:43.770Z,298.12
2023-05-13T09:31:41.744Z,309.38
2023-05-13T09:32:41.650Z,309.38
2023-05-13T09:33:41.625Z,309.38
2023-05-13T09:34:41.617Z,309.38
2023-05-13T09:35:41.633Z,309.38
2023-05-13T09:36:41.616Z,315.00
2023-05-13T09:37:41.607Z,320.62
2023-05-13T09:38:41.605Z,326.25
2023-05-13T09:39:41.951Z,326.25
2023-05-13T09:40:41.569Z,320.62
2023-05-13T09:41:41.565Z,315.00
2023-05-13T09:42:41.600Z,309.38
2023-05-13T09:43:41.547Z,292.50
2023-05-13T09:44:41.553Z,281.25
2023-05-13T09:45:41.549Z,270.00
2023-05-13T09:46:41.562Z,270.00
2023-05-13T09:47:41.575Z,281.25
2023-05-13T09:48:41.523Z,376.88
2023-05-13T09:49:41.518Z,320.62
2023-05-13T09:50:41.527Z,320.62
2023-05-13T09:51:41.517Z,320.62
2023-05-13T09:52:41.511Z,326.25
2023-05-13T09:53:41.506Z,337.50
2023-05-13T09:54:41.820Z,348.75
2023-05-13T09:55:41.489Z,360.00
2023-05-13T09:56:41.479Z,371.25
2023-05-13T09:57:41.526Z,438.75
2023-05-13T09:58:41.491Z,376.88
2023-05-13T09:59:41.449Z,354.38
2023-05-13T10:00:41.650Z,343.12
2023-05-13T10:01:41.678Z,320.62
2023-05-13T10:02:41.481Z,320.62
2023-05-13T10:03:41.538Z,320.62
2023-05-13T10:04:41.480Z,315.00
2023-05-13T10:05:41.454Z,315.00
2023-05-13T10:06:41.431Z,315.00
2023-05-13T10:07:41.407Z,309.38
2023-05-13T10:08:41.448Z,303.75
2023-05-13T10:09:41.415Z,298.12
2023-05-13T10:10:41.392Z,298.12
2023-05-13T10:11:41.384Z,298.12
2023-05-13T10:12:41.406Z,303.75
2023-05-13T10:13:41.364Z,298.12
2023-05-13T10:14:41.379Z,298.12
2023-05-13T10:15:41.357Z,298.12
2023-05-13T10:16:41.395Z,298.12
2023-05-13T10:17:41.378Z,292.50
2023-05-13T10:18:41.373Z,292.50
2023-05-13T10:19:41.332Z,320.62
2023-05-13T10:20:41.327Z,1440.00
2023-05-13T10:21:41.314Z,270.00
2023-05-13T10:22:41.306Z,253.12
2023-05-13T10:23:41.289Z,241.88
2023-05-13T10:24:41.308Z,225.00
2023-05-13T10:25:41.298Z,213.75
2023-05-13T10:26:41.277Z,196.88
2023-05-13T10:27:41.296Z,185.62
2023-05-13T10:28:41.256Z,174.38
2023-05-13T10:29:41.259Z,163.12
2023-05-13T10:30:41.263Z,157.50
2023-05-13T10:31:41.257Z,146.25
2023-05-13T10:32:41.778Z,146.25
2023-05-13T10:33:41.233Z,140.62
2023-05-13T10:34:41.296Z,135.00
2023-05-13T10:35:42.755Z,135.00
2023-05-13T10:36:42.200Z,129.38
2023-05-13T10:37:41.195Z,123.75
2023-05-13T10:38:41.263Z,123.75
2023-05-13T10:39:41.205Z,123.75
2023-05-13T10:40:41.166Z,123.75
2023-05-13T10:41:41.166Z,123.75
2023-05-13T10:42:41.183Z,123.75
2023-05-13T10:43:41.157Z,123.75
2023-05-13T10:44:41.165Z,123.75
2023-05-13T10:45:41.151Z,129.38
2023-05-13T10:46:41.147Z,135.00
2023-05-13T10:47:41.175Z,140.62
2023-05-13T10:48:41.180Z,140.62
2023-05-13T10:49:41.129Z,140.62
2023-05-13T10:50:41.123Z,140.62
2023-05-13T10:51:41.113Z,135.00
2023-05-13T10:52:41.096Z,129.38
2023-05-13T10:53:41.091Z,123.75
2023-05-13T10:54:41.103Z,118.12
2023-05-13T10:55:41.441Z,112.50
2023-05-13T10:56:41.061Z,106.88
2023-05-13T10:57:41.075Z,101.25
2023-05-13T10:58:41.059Z,95.62
2023-05-13T10:59:41.052Z,95.62
2023-05-13T11:00:41.061Z,95.62
2023-05-13T11:01:41.079Z,101.25
2023-05-13T11:02:41.083Z,101.25
2023-05-13T11:03:41.224Z,106.88
2023-05-13T11:04:41.022Z,106.88
2023-05-13T11:05:41.022Z,106.88
2023-05-13T11:06:41.031Z,106.88
2023-05-13T11:07:41.027Z,106.88
2023-05-13T11:08:41.003Z,106.88
2023-05-13T11:09:40.992Z,106.88
2023-05-13T11:10:41.009Z,101.25
2023-05-13T11:11:40.985Z,101.25
2023-05-13T11:12:40.956Z,95.62
2023-05-13T11:13:40.973Z,95.62
2023-05-13T11:14:40.955Z,95.62
2023-05-13T11:15:40.939Z,90.00
2023-05-13T11:16:40.984Z,84.38
2023-05-13T11:17:40.954Z,84.38
2023-05-13T11:18:40.991Z,84.38
2023-05-13T11:19:40.914Z,84.38
2023-05-13T11:20:51.697Z,84.38
2023-05-13T11:21:42.908Z,84.38
2023-05-13T11:22:40.902Z,84.38
2023-05-13T11:23:40.903Z,78.75
2023-05-13T11:24:40.892Z,78.75
2023-05-13T11:25:40.880Z,84.38
2023-05-13T11:26:40.871Z,84.38
2023-05-13T11:27:41.876Z,84.38
2023-05-13T11:28:40.871Z,84.38
2023-05-13T11:29:40.856Z,84.38
2023-05-13T11:30:40.869Z,95.62
2023-05-13T11:31:40.879Z,101.25
2023-05-13T11:32:40.879Z,106.88
2023-05-13T11:33:40.820Z,112.50
2023-05-13T11:34:40.815Z,123.75
2023-05-13T11:35:40.802Z,129.38
2023-05-13T11:36:40.800Z,140.62
2023-05-13T11:37:40.826Z,146.25
2023-05-13T11:38:41.785Z,157.50
2023-05-13T11:39:40.819Z,168.75
2023-05-13T11:40:40.765Z,185.62
2023-05-13T11:41:40.767Z,196.88
2023-05-13T11:42:40.764Z,213.75
2023-05-13T11:43:40.761Z,230.62
2023-05-13T11:44:40.734Z,247.50
2023-05-13T11:45:40.767Z,270.00
2023-05-13T11:46:40.728Z,298.12
2023-05-13T11:47:40.803Z,320.62
2023-05-13T11:48:40.714Z,343.12
2023-05-13T11:49:40.733Z,365.62
2023-05-13T11:50:40.697Z,410.62
2023-05-13T11:51:40.693Z,461.25
2023-05-13T11:52:40.691Z,506.25
2023-05-13T11:53:40.695Z,500.62
2023-05-13T11:54:40.685Z,534.38
2023-05-13T11:55:40.669Z,540.00
2023-05-13T11:56:40.669Z,545.62
2023-05-13T11:57:40.670Z,551.25
2023-05-13T11:58:40.651Z,528.75
2023-05-13T11:59:48.002Z,540.00
2023-05-13T12:00:44.002Z,528.75
2023-05-13T12:01:40.640Z,534.38
2023-05-13T12:02:41.155Z,534.38
2023-05-13T12:03:40.655Z,528.75
2023-05-13T12:04:40.622Z,528.75
2023-05-13T12:05:40.792Z,534.38
2023-05-13T12:06:40.609Z,540.00
2023-05-13T12:07:40.600Z,545.62
2023-05-13T12:08:40.589Z,540.00
2023-05-13T12:09:40.594Z,523.12
2023-05-13T12:10:40.565Z,540.00
2023-05-13T12:11:41.606Z,545.62
2023-05-13T12:12:40.556Z,523.12
2023-05-13T12:13:40.552Z,545.62
2023-05-13T12:14:40.589Z,523.12
2023-05-13T12:15:40.642Z,590.62
2023-05-13T12:16:40.530Z,585.00
2023-05-13T12:17:40.610Z,624.38
2023-05-13T12:18:40.533Z,618.75
2023-05-13T12:19:40.533Z,618.75
2023-05-13T12:20:40.508Z,618.75
2023-05-13T12:21:40.521Z,613.12
2023-05-13T12:22:40.487Z,579.38
2023-05-13T12:23:40.509Z,528.75
2023-05-13T12:24:40.470Z,506.25
2023-05-13T12:25:40.495Z,495.00
2023-05-13T12:26:40.488Z,495.00
2023-05-13T12:27:40.457Z,500.62
2023-05-13T12:28:40.451Z,495.00
2023-05-13T12:29:40.443Z,517.50
2023-05-13T12:30:40.448Z,523.12
2023-05-13T12:31:40.492Z,483.75
2023-05-13T12:32:40.513Z,500.62
2023-05-13T12:33:40.416Z,500.62
2023-05-13T12:34:40.408Z,495.00
2023-05-13T12:35:40.408Z,495.00
2023-05-13T12:36:40.466Z,495.00
2023-05-13T12:37:40.484Z,506.25
2023-05-13T12:38:40.381Z,517.50
2023-05-13T12:39:40.374Z,511.88
2023-05-13T12:40:40.366Z,500.62
2023-05-13T12:41:40.394Z,495.00
2023-05-13T12:42:40.375Z,489.38